Time;durP1;ratioP1;P1;durP2;ratioP2;P2;SDS_P1;SDS_P2;PMS_P1;PMS_P2;Temp;Humidity;BMP_temperature;BMP_pressure;BME280_temperature;BME280_humidity;BME280_pressure;Samples;Min_cycle;Max_cycle;Signal;HPM_P1;HPM_P2
2023/08/02 00:00:35;;;;;;;8.27;3.80;;;;;;;22.13;45.06;93283.66;5071919;28;20031;-74
2023/08/02 00:03:01;;;;;;;5.90;3.97;;;;;;;22.16;45.68;93277.44;5066107;28;20274;-75
2023/08/02 00:05:27;;;;;;;5.63;4.25;;;;;;;22.12;45.18;93263.16;5071546;28;20039;-74
2023/08/02 00:07:52;;;;;;;4.43;4.03;;;;;;;22.08;46.09;93275.97;5069573;28;20090;-75
2023/08/02 00:10:18;;;;;;;4.75;3.83;;;;;;;21.97;45.75;93258.22;5069645;28;20044;-74
2023/08/02 00:12:43;;;;;;;6.88;4.20;;;;;;;22.11;45.24;93287.91;5071281;28;20067;-75
2023/08/02 00:15:09;;;;;;;6.45;5.22;;;;;;;22.07;45.75;93293.38;5068938;28;20048;-74
2023/08/02 00:17:35;;;;;;;5.97;4.15;;;;;;;22.09;46.21;93293.75;5069600;28;20712;-74
2023/08/02 00:20:00;;;;;;;6.05;4.60;;;;;;;22.08;46.39;93299.56;5071688;28;20424;-75
2023/08/02 00:22:26;;;;;;;4.53;4.13;;;;;;;21.94;46.49;93278.75;5069617;28;20435;-74
2023/08/02 00:24:51;;;;;;;6.65;4.35;;;;;;;22.01;46.99;93291.47;5070652;28;20024;-74
2023/08/02 00:27:16;;;;;;;5.00;4.20;;;;;;;22.00;46.92;93293.41;5071932;28;20555;-74
2023/08/02 00:29:42;;;;;;;5.90;4.22;;;;;;;21.96;47.19;93286.47;5073439;28;20062;-74
2023/08/02 00:32:07;;;;;;;5.47;4.30;;;;;;;21.94;46.64;93278.00;5068094;28;20192;-75
2023/08/02 00:34:32;;;;;;;5.07;4.53;;;;;;;21.97;46.09;93288.78;5069099;28;20146;-75
2023/08/02 00:36:58;;;;;;;5.30;3.92;;;;;;;21.93;46.67;93288.06;5070571;28;20051;-74
2023/08/02 00:39:23;;;;;;;7.03;5.00;;;;;;;21.98;46.63;93303.88;5071091;28;20174;-74
2023/08/02 00:41:49;;;;;;;6.85;4.25;;;;;;;21.96;46.67;93295.38;5072193;28;20116;-74
2023/08/02 00:44:14;;;;;;;6.05;4.43;;;;;;;21.92;47.42;93289.22;5069461;28;20268;-74
2023/08/02 00:46:39;;;;;;;5.00;4.38;;;;;;;21.96;47.18;93298.06;5069066;28;20521;-73
2023/08/02 00:49:05;;;;;;;5.68;4.50;;;;;;;21.96;46.50;93303.50;5083265;27;20099;-75
2023/08/02 00:51:33;;;;;;;5.95;4.68;;;;;;;21.94;46.24;93305.06;5070204;28;20431;-75
2023/08/02 00:54:02;;;;;;;7.25;4.70;;;;;;;21.95;46.86;93293.81;5069834;28;20987;-75
2023/08/02 00:56:30;;;;;;;6.40;4.47;;;;;;;21.97;46.63;93283.38;5070855;28;20045;-74
2023/08/02 00:58:56;;;;;;;6.60;4.97;;;;;;;21.56;46.12;93220.25;5067681;28;20135;-75
2023/08/02 01:01:21;;;;;;;4.45;4.05;;;;;;;21.80;46.45;93257.22;5067689;27;20093;-75
2023/08/02 01:03:47;;;;;;;8.18;4.15;;;;;;;22.01;46.21;93292.25;5072707;28;20035;-74
2023/08/02 01:06:46;;;;;;;4.88;4.00;;;;;;;21.98;46.37;93293.03;5072218;28;20040;-73
2023/08/02 01:09:51;;;;;;;4.07;3.53;;;;;;;21.87;46.83;93287.69;5069598;28;20039;-74
2023/08/02 01:12:21;;;;;;;5.72;4.95;;;;;;;21.73;46.96;93274.25;5046844;28;20044;-75
2023/08/02 01:14:53;;;;;;;4.97;4.53;;;;;;;21.73;46.80;93273.47;5073495;28;20040;-75
2023/08/02 01:17:19;;;;;;;5.88;4.82;;;;;;;21.81;46.82;93277.66;5071128;28;20093;-74
2023/08/02 01:19:45;;;;;;;5.43;4.55;;;;;;;21.78;46.77;93278.47;5068946;28;20090;-73
2023/08/02 01:22:10;;;;;;;6.05;4.47;;;;;;;21.69;47.38;93267.31;5072357;28;20482;-74
2023/08/02 01:24:37;;;;;;;5.50;4.82;;;;;;;21.68;47.24;93271.97;5067417;28;20028;-76
2023/08/02 01:27:09;;;;;;;9.57;4.70;;;;;;;21.63;47.54;93280.50;5065050;28;20613;-74
2023/08/02 01:29:37;;;;;;;5.13;4.50;;;;;;;21.55;47.32;93276.31;5067463;28;20063;-73
2023/08/02 01:32:03;;;;;;;6.05;4.95;;;;;;;21.64;47.41;93289.38;5068449;27;20040;-73
2023/08/02 01:34:30;;;;;;;5.15;4.63;;;;;;;21.49;47.13;93263.53;5069608;28;20448;-74
2023/08/02 01:36:55;;;;;;;5.88;4.80;;;;;;;21.51;47.55;93274.75;5066728;28;21071;-76
2023/08/02 01:39:21;;;;;;;8.95;5.25;;;;;;;21.38;47.64;93266.31;5070523;28;20382;-74
2023/08/02 01:41:46;;;;;;;5.30;4.80;;;;;;;21.40;47.53;93272.88;5066307;28;20032;-74
2023/08/02 01:44:12;;;;;;;5.10;4.43;;;;;;;21.39;47.08;93271.31;5069664;28;20512;-74
2023/08/02 01:46:37;;;;;;;5.45;4.60;;;;;;;21.44;47.39;93268.22;5070070;28;20496;-75
2023/08/02 01:49:02;;;;;;;4.53;4.10;;;;;;;21.40;47.15;93267.47;5065919;28;20016;-75
2023/08/02 01:51:28;;;;;;;6.35;4.90;;;;;;;21.35;47.15;93259.75;5066573;28;20016;-74
2023/08/02 01:53:53;;;;;;;5.38;4.38;;;;;;;21.37;47.14;93257.41;5070083;28;20032;-74
2023/08/02 01:56:19;;;;;;;8.27;4.88;;;;;;;21.33;47.08;93262.06;5068321;28;20043;-73
2023/08/02 01:58:44;;;;;;;6.22;4.45;;;;;;;21.29;47.16;93258.63;5068359;28;20039;-73
2023/08/02 02:01:10;;;;;;;5.47;4.80;;;;;;;21.35;46.99;93270.56;5068525;28;20025;-76
2023/08/02 02:03:35;;;;;;;9.68;5.00;;;;;;;21.35;47.13;93265.16;5070837;28;20089;-77
2023/08/02 02:06:01;;;;;;;5.03;4.53;;;;;;;21.09;47.46;93237.84;5069345;28;20094;-76
2023/08/02 02:08:26;;;;;;;5.07;4.45;;;;;;;21.20;47.05;93252.88;5069368;27;20454;-75
2023/08/02 02:10:53;;;;;;;6.03;5.43;;;;;;;21.22;46.64;93252.47;5065074;28;20546;-75
2023/08/02 02:13:19;;;;;;;5.05;4.55;;;;;;;21.28;46.73;93259.78;5068287;28;20024;-75
2023/08/02 02:15:45;;;;;;;6.93;4.32;;;;;;;21.26;46.92;93266.75;5067933;28;20154;-76
2023/08/02 02:18:10;;;;;;;6.25;4.93;;;;;;;21.26;47.17;93272.16;5067023;28;20040;-73
2023/08/02 02:20:35;;;;;;;5.90;5.03;;;;;;;21.23;47.22;93272.94;5069147;28;20092;-74
2023/08/02 02:23:01;;;;;;;7.65;5.10;;;;;;;21.23;47.25;93273.72;5067453;28;20032;-75
2023/08/02 02:25:26;;;;;;;6.32;4.72;;;;;;;21.23;47.42;93273.72;5066875;28;20415;-76
2023/08/02 02:27:52;;;;;;;7.78;5.13;;;;;;;21.12;47.53;93275.69;5068276;28;20031;-76
2023/08/02 02:30:17;;;;;;;5.32;4.53;;;;;;;21.16;47.51;93281.88;5068440;28;20116;-76
2023/08/02 02:32:42;;;;;;;6.03;5.43;;;;;;;21.10;47.56;93283.44;5067611;28;20474;-76
2023/08/02 02:35:12;;;;;;;11.38;6.38;;;;;;;21.05;47.91;93277.66;5067368;27;20147;-75
2023/08/02 02:37:37;;;;;;;5.72;5.13;;;;;;;21.07;48.00;93286.16;5068766;28;20031;-76
2023/08/02 02:40:03;;;;;;;7.00;6.28;;;;;;;20.95;47.74;93280.00;5066012;28;20131;-75
2023/08/02 02:42:29;;;;;;;5.88;5.10;;;;;;;20.93;48.13;93276.13;5068920;28;20043;-77
2023/08/02 02:44:54;;;;;;;4.90;4.40;;;;;;;20.97;48.11;93279.63;5067941;28;20036;-76
2023/08/02 02:47:20;;;;;;;6.07;4.88;;;;;;;21.01;48.04;93274.97;5070992;28;20040;-76
2023/08/02 02:49:45;;;;;;;7.75;5.25;;;;;;;20.97;48.02;93282.31;5070622;27;20058;-75
2023/08/02 02:52:10;;;;;;;9.77;6.10;;;;;;;21.02;49.13;93295.44;5068282;28;20032;-76
2023/08/02 02:54:36;;;;;;;7.75;5.88;;;;;;;21.03;48.70;93296.94;5068075;28;20505;-77
2023/08/02 02:57:01;;;;;;;6.32;5.30;;;;;;;21.06;48.73;93304.31;5066520;28;20444;-74
2023/08/02 02:59:26;;;;;;;6.18;5.25;;;;;;;21.10;48.19;93312.41;5068107;28;20037;-75
2023/08/02 03:01:52;;;;;;;6.05;5.50;;;;;;;21.08;48.83;93315.47;5067194;28;20738;-75
2023/08/02 03:04:17;;;;;;;8.57;5.47;;;;;;;20.94;49.01;93308.19;5066595;28;20256;-76
2023/08/02 03:06:43;;;;;;;6.75;6.00;;;;;;;21.12;48.55;93320.91;5072767;28;20020;-75
2023/08/02 03:09:08;;;;;;;7.00;5.47;;;;;;;21.05;48.50;93327.09;5065963;28;20036;-75
2023/08/02 03:11:33;;;;;;;8.13;5.63;;;;;;;20.93;48.89;93308.56;5072657;28;20143;-76
2023/08/02 03:14:00;;;;;;;8.45;6.05;;;;;;;21.01;48.55;93321.69;5065953;28;20040;-75
2023/08/02 03:16:26;;;;;;;5.85;5.30;;;;;;;21.07;48.23;93310.47;5067214;28;20036;-75
2023/08/02 03:18:54;;;;;;;8.30;6.00;;;;;;;21.08;48.63;93315.47;5066142;28;20047;-75
2023/08/02 03:21:20;;;;;;;6.32;5.25;;;;;;;20.99;48.88;93304.31;5065508;28;20058;-75
2023/08/02 03:23:45;;;;;;;7.95;6.03;;;;;;;21.07;48.61;93305.81;5067782;28;20379;-75
2023/08/02 03:26:11;;;;;;;8.05;6.80;;;;;;;21.03;48.82;93296.94;5066998;28;20074;-74
2023/08/02 03:28:36;;;;;;;7.18;6.47;;;;;;;21.07;48.69;93302.38;5067334;28;20071;-76
2023/08/02 03:31:01;;;;;;;7.68;5.97;;;;;;;21.02;49.14;93300.84;5066056;28;20021;-77
2023/08/02 03:33:27;;;;;;;9.48;6.63;;;;;;;20.99;49.42;93304.31;5064400;28;20403;-75
2023/08/02 03:35:52;;;;;;;8.88;6.90;;;;;;;20.89;49.83;93302.41;5066731;28;20064;-75
2023/08/02 03:38:18;;;;;;;14.45;7.00;;;;;;;20.75;49.81;93297.00;5068768;28;20411;-76
2023/08/02 03:40:43;;;;;;;9.18;7.03;;;;;;;20.77;50.49;93316.31;5067037;28;20351;-74
2023/08/02 03:43:09;;;;;;;8.93;6.28;;;;;;;20.83;50.22;93326.31;5066518;28;20036;-75
2023/08/02 03:45:35;;;;;;;8.13;5.47;;;;;;;20.80;50.72;93321.69;5067417;28;20355;-76
2023/08/02 03:48:00;;;;;;;10.10;6.75;;;;;;;20.77;50.15;93321.72;5067101;28;20042;-75
2023/08/02 03:50:27;;;;;;;11.05;6.50;;;;;;;20.80;51.35;93315.53;5063929;28;20040;-74
2023/08/02 03:52:52;;;;;;;10.52;6.22;;;;;;;20.80;50.82;93320.94;5066752;28;20024;-75
2023/08/02 03:55:18;;;;;;;7.28;6.50;;;;;;;20.76;50.79;93320.94;5066737;28;20085;-76
2023/08/02 03:57:43;;;;;;;8.77;5.63;;;;;;;20.81;51.78;93327.88;5073852;28;20463;-74
2023/08/02 04:00:09;;;;;;;7.75;5.97;;;;;;;20.84;51.75;93324.38;5046275;28;20037;-74
2023/08/02 04:02:34;;;;;;;7.53;6.68;;;;;;;20.87;51.75;93319.03;5044020;28;20379;-75
2023/08/02 04:05:00;;;;;;;7.68;6.30;;;;;;;20.87;51.81;93318.25;5044709;28;20033;-75
2023/08/02 04:07:25;;;;;;;6.85;6.00;;;;;;;20.77;52.11;93295.47;5044061;28;20038;-76
2023/08/02 04:09:51;;;;;;;7.38;6.00;;;;;;;21.00;51.13;93324.78;5046420;28;20633;-74
2023/08/02 04:12:17;;;;;;;9.10;6.15;;;;;;;20.98;51.81;93319.75;5044051;28;20580;-76
2023/08/02 04:14:43;;;;;;;7.22;6.35;;;;;;;20.94;52.17;93321.69;5044317;28;20053;-75
2023/08/02 04:17:09;;;;;;;9.93;6.32;;;;;;;20.84;51.89;93311.66;5043483;28;20110;-75
2023/08/02 04:19:34;;;;;;;7.65;6.93;;;;;;;20.93;51.58;93330.97;5042426;28;20037;-76
2023/08/02 04:21:59;;;;;;;8.30;6.75;;;;;;;20.91;51.54;93317.09;5044944;28;20078;-74
2023/08/02 04:24:25;;;;;;;8.35;6.60;;;;;;;20.88;51.91;93301.63;5066617;28;20391;-75
2023/08/02 04:26:50;;;;;;;10.30;5.80;;;;;;;21.10;51.62;93328.63;5066778;28;20439;-75
2023/08/02 04:29:16;;;;;;;7.85;6.38;;;;;;;20.92;52.12;93296.22;5054270;28;20032;-76
2023/08/02 04:31:41;;;;;;;8.25;6.68;;;;;;;21.07;51.51;93308.53;5043613;28;20047;-74
2023/08/02 04:34:06;;;;;;;7.88;6.95;;;;;;;21.24;50.92;93329.34;5045568;28;20457;-75
2023/08/02 04:36:32;;;;;;;8.30;6.22;;;;;;;21.26;51.39;93321.63;5048681;28;20044;-74
2023/08/02 04:38:57;;;;;;;11.07;7.35;;;;;;;21.26;51.75;93310.81;5051484;28;20067;-74
2023/08/02 04:41:22;;;;;;;8.82;6.65;;;;;;;21.41;51.72;93323.06;5049217;28;20041;-75
2023/08/02 04:43:48;;;;;;;10.10;6.55;;;;;;;21.43;50.31;93315.34;5048495;28;20051;-74
2023/08/02 04:46:13;;;;;;;8.93;6.78;;;;;;;21.49;50.33;93313.00;5047838;28;20035;-74
2023/08/02 04:48:39;;;;;;;9.52;6.78;;;;;;;21.54;49.94;93325.34;5048513;28;20024;-75
2023/08/02 04:51:10;;;;;;;10.13;6.97;;;;;;;21.52;49.56;93312.22;5048918;28;20044;-74
2023/08/02 04:53:36;;;;;;;9.40;6.60;;;;;;;21.53;49.97;93321.09;5046090;28;20418;-75
2023/08/02 04:56:01;;;;;;;8.20;6.57;;;;;;;21.59;50.76;93324.97;5048455;28;20502;-74
2023/08/02 04:58:27;;;;;;;10.57;6.75;;;;;;;21.65;51.09;93331.53;5048659;28;20040;-74
2023/08/02 05:00:52;;;;;;;10.82;7.60;;;;;;;21.69;51.18;93333.03;5048286;28;20094;-75
2023/08/02 05:03:17;;;;;;;9.00;6.35;;;;;;;21.72;49.95;93336.88;5048032;28;20052;-75
2023/08/02 05:05:43;;;;;;;9.50;6.85;;;;;;;21.76;50.17;93343.03;5047219;28;20041;-76
2023/08/02 05:08:08;;;;;;;9.63;7.25;;;;;;;21.70;50.16;93333.81;5049000;28;20629;-74
2023/08/02 05:10:37;;;;;;;8.93;7.40;;;;;;;21.74;49.33;93334.56;5049917;28;20090;-75
2023/08/02 05:13:05;;;;;;;8.35;7.22;;;;;;;21.83;49.16;93343.03;5067728;27;20089;-74
2023/08/02 05:15:35;;;;;;;8.90;7.47;;;;;;;21.79;50.29;93312.50;5047706;28;20025;-75
2023/08/02 05:18:01;;;;;;;14.50;7.63;;;;;;;21.87;49.88;93324.81;5047329;28;20079;-74
2023/08/02 05:20:30;;;;;;;13.43;7.80;;;;;;;21.92;49.98;93334.47;5048077;28;20044;-75
2023/08/02 05:22:56;;;;;;;12.38;7.97;;;;;;;21.92;50.39;93348.78;5048180;28;20045;-76
2023/08/02 05:25:21;;;;;;;14.57;7.95;;;;;;;21.97;49.44;93359.19;5047604;28;20033;-75
2023/08/02 05:27:46;;;;;;;21.67;8.23;;;;;;;21.98;48.88;93346.41;5046664;28;20023;-75
2023/08/02 05:30:12;;;;;;;9.98;7.43;;;;;;;21.92;49.74;93335.22;5048433;28;20460;-75
2023/08/02 05:32:37;;;;;;;12.77;8.20;;;;;;;22.06;49.21;93351.38;5046500;28;20047;-76
2023/08/02 05:35:03;;;;;;;12.32;8.63;;;;;;;21.90;49.17;93336.81;5048282;28;20043;-75
2023/08/02 05:37:29;;;;;;;13.48;8.43;;;;;;;22.00;49.10;93352.97;5047609;28;20044;-76
2023/08/02 05:39:55;;;;;;;12.52;9.30;;;;;;;22.07;48.51;93363.75;5046853;28;20036;-76
2023/08/02 05:42:20;;;;;;;10.73;9.63;;;;;;;22.05;48.73;93360.66;5044714;28;20101;-75
2023/08/02 05:44:45;;;;;;;15.00;8.88;;;;;;;22.17;48.46;93368.34;5045495;28;20024;-76
2023/08/02 05:47:12;;;;;;;12.98;10.20;;;;;;;22.19;47.66;93370.66;5045061;28;20036;-76
2023/08/02 05:49:37;;;;;;;13.25;9.93;;;;;;;22.26;47.30;93370.63;5045733;28;20629;-75
2023/08/02 05:52:03;;;;;;;14.27;9.68;;;;;;;22.21;47.56;93379.94;5052769;28;20033;-75
2023/08/02 05:54:28;;;;;;;12.07;9.50;;;;;;;22.24;48.60;93387.28;5049411;28;20029;-74
2023/08/02 05:56:53;;;;;;;11.20;8.68;;;;;;;22.33;48.26;93388.78;5061698;28;20044;-76
2023/08/02 05:59:19;;;;;;;10.40;9.25;;;;;;;22.34;48.37;93382.22;5067306;28;20037;-75
2023/08/02 06:01:44;;;;;;;13.82;9.80;;;;;;;22.41;48.21;93382.13;5068385;28;20089;-75
2023/08/02 06:04:09;;;;;;;18.08;10.40;;;;;;;22.56;47.85;93389.78;5069768;28;20546;-75
2023/08/02 06:06:35;;;;;;;13.50;9.85;;;;;;;22.49;48.03;93370.06;5067775;28;20103;-75
2023/08/02 06:09:00;;;;;;;21.98;10.13;;;;;;;22.62;48.61;93387.41;5069569;28;21410;-75
2023/08/02 06:11:26;;;;;;;14.48;10.38;;;;;;;22.53;47.81;93377.03;5074159;28;20048;-76
2023/08/02 06:13:51;;;;;;;16.20;10.23;;;;;;;22.71;48.00;93391.22;5070263;28;20125;-75
2023/08/02 06:16:16;;;;;;;13.73;9.82;;;;;;;22.72;47.55;93389.28;5071998;28;20497;-75
2023/08/02 06:18:42;;;;;;;14.10;9.40;;;;;;;22.82;47.28;93391.13;5070438;28;20036;-73
2023/08/02 06:21:07;;;;;;;15.00;9.88;;;;;;;22.96;46.84;93401.09;5066503;28;20221;-73
2023/08/02 06:23:33;;;;;;;12.88;9.38;;;;;;;23.05;46.21;93396.75;5067890;28;20502;-74
2023/08/02 06:25:58;;;;;;;14.68;10.55;;;;;;;22.90;47.51;93398.03;5064869;28;20452;-74
2023/08/02 06:28:23;;;;;;;17.77;11.10;;;;;;;22.91;47.01;93391.47;5070511;28;20067;-75
2023/08/02 06:30:49;;;;;;;17.08;11.13;;;;;;;22.91;46.37;93386.03;5062983;28;20708;-73
2023/08/02 06:33:14;;;;;;;16.52;9.60;;;;;;;23.05;46.12;93385.91;5067163;28;20036;-74
2023/08/02 06:35:39;;;;;;;16.33;9.27;;;;;;;23.14;46.58;93386.19;5065375;28;20627;-74
2023/08/02 06:38:05;;;;;;;12.25;9.45;;;;;;;23.08;46.22;93381.59;5069878;28;20028;-75
2023/08/02 06:40:30;;;;;;;14.10;10.32;;;;;;;23.23;46.93;93382.22;5066481;28;20036;-74
2023/08/02 06:42:55;;;;;;;18.45;9.60;;;;;;;23.27;46.92;93374.84;5083579;27;20127;-76
2023/08/02 06:45:21;;;;;;;16.05;9.95;;;;;;;23.48;45.52;93390.88;5065336;28;20399;-75
2023/08/02 06:47:46;;;;;;;17.50;10.95;;;;;;;23.41;45.18;93378.19;5067037;28;20040;-77
2023/08/02 06:50:11;;;;;;;17.95;11.35;;;;;;;23.53;44.78;93368.75;5067782;28;20098;-75
2023/08/02 06:52:37;;;;;;;15.90;10.73;;;;;;;23.71;45.21;93372.00;5064968;28;20070;-74
2023/08/02 06:55:02;;;;;;;12.95;9.98;;;;;;;23.79;45.50;93370.00;5065625;28;20305;-76
2023/08/02 06:57:31;;;;;;;13.85;10.10;;;;;;;23.54;45.13;93352.06;5066766;28;20047;-75
2023/08/02 06:59:56;;;;;;;14.15;9.60;;;;;;;23.81;44.86;93379.25;5069705;28;20271;-77
2023/08/02 07:02:22;;;;;;;15.20;9.82;;;;;;;23.81;43.96;93379.25;5065123;28;20102;-73
2023/08/02 07:04:47;;;;;;;13.00;10.13;;;;;;;23.92;44.21;93381.84;5068092;28;20032;-74
2023/08/02 07:07:12;;;;;;;17.10;10.38;;;;;;;23.78;43.62;93355.66;5064739;28;20110;-75
2023/08/02 07:09:38;;;;;;;12.55;10.93;;;;;;;23.97;45.13;93382.16;5064510;28;20020;-74
2023/08/02 07:12:03;;;;;;;11.65;9.90;;;;;;;23.82;44.10;93369.16;5066515;28;20052;-73
2023/08/02 07:14:29;;;;;;;17.30;10.25;;;;;;;23.94;44.49;93369.41;5066630;28;20040;-73
2023/08/02 07:16:54;;;;;;;17.27;10.90;;;;;;;24.06;44.33;93378.16;5067528;28;20036;-74
2023/08/02 07:19:20;;;;;;;11.55;10.35;;;;;;;24.09;44.45;93380.09;5066944;28;20182;-74
2023/08/02 07:21:45;;;;;;;16.05;10.30;;;;;;;24.09;44.14;93382.81;5067079;28;20027;-73
2023/08/02 07:24:10;;;;;;;13.52;10.65;;;;;;;24.00;43.92;93375.91;5066732;28;20194;-76
2023/08/02 07:26:38;;;;;;;14.13;10.35;;;;;;;24.13;43.82;93386.25;5065729;28;20760;-77
2023/08/02 07:29:04;;;;;;;22.02;10.25;;;;;;;24.00;44.90;93391.47;5063776;28;20036;-76
2023/08/02 07:31:29;;;;;;;11.10;10.00;;;;;;;24.11;44.53;93383.94;5068063;28;20487;-76
2023/08/02 07:33:56;;;;;;;14.73;10.38;;;;;;;24.21;45.29;93387.69;5065925;28;20027;-77
2023/08/02 07:36:21;;;;;;;17.45;11.25;;;;;;;24.23;45.36;93374.47;5065142;28;20597;-76
2023/08/02 07:38:47;;;;;;;15.32;10.90;;;;;;;24.17;45.90;93373.41;5061885;28;20142;-76
2023/08/02 07:41:12;;;;;;;13.05;9.93;;;;;;;24.08;46.38;93378.53;5067579;28;20643;-75
2023/08/02 07:43:38;;;;;;;9.82;8.93;;;;;;;24.35;45.32;93384.78;5056267;28;20043;-77
2023/08/02 07:46:03;;;;;;;11.13;8.52;;;;;;;24.55;45.10;93382.16;5057038;28;20027;-77
2023/08/02 07:48:29;;;;;;;10.27;8.60;;;;;;;24.61;44.38;93381.28;5057381;28;20023;-75
2023/08/02 07:50:55;;;;;;;15.90;9.15;;;;;;;24.78;43.99;93380.25;5055688;28;20600;-77
2023/08/02 07:53:20;;;;;;;11.27;9.55;;;;;;;24.84;44.62;93378.59;5056151;28;20491;-76
2023/08/02 07:55:48;;;;;;;17.38;9.65;;;;;;;24.65;43.84;93362.94;5052976;28;20063;-74
2023/08/02 07:58:13;;;;;;;11.00;9.05;;;;;;;24.76;43.97;93382.63;5055634;28;20079;-76
2023/08/02 08:00:39;;;;;;;14.85;8.88;;;;;;;24.76;44.99;93377.19;5055974;28;20532;-76
2023/08/02 08:03:04;;;;;;;12.95;8.98;;;;;;;24.50;43.86;93356.19;5055913;28;20520;-76
2023/08/02 08:05:30;;;;;;;10.70;8.73;;;;;;;24.65;43.71;93378.50;5052646;28;20039;-75
2023/08/02 08:07:56;;;;;;;11.88;9.50;;;;;;;24.57;44.04;93369.69;5057910;28;20040;-74
2023/08/02 08:10:21;;;;;;;12.68;8.15;;;;;;;24.54;44.98;93364.31;5058738;28;20508;-75
2023/08/02 08:12:47;;;;;;;10.23;8.00;;;;;;;24.62;43.68;93374.66;5059556;28;20511;-76
2023/08/02 08:15:12;;;;;;;12.35;8.93;;;;;;;24.44;43.53;93355.91;5067132;28;20707;-76
2023/08/02 08:17:40;;;;;;;12.95;8.52;;;;;;;24.57;43.36;93368.91;5063894;28;20033;-74
2023/08/02 08:20:05;;;;;;;10.82;7.60;;;;;;;24.58;43.68;93376.69;5060871;28;20044;-76
2023/08/02 08:22:31;;;;;;;13.10;7.72;;;;;;;24.71;43.32;93369.50;5061450;28;20089;-77
2023/08/02 08:24:57;;;;;;;10.48;8.05;;;;;;;24.76;43.32;93379.13;5060510;28;20460;-77
2023/08/02 08:27:22;;;;;;;10.38;8.60;;;;;;;24.82;43.75;93385.63;5059921;28;20060;-75
2023/08/02 08:29:48;;;;;;;10.10;6.60;;;;;;;24.85;41.07;93369.25;5057880;28;20128;-75
2023/08/02 08:32:13;;;;;;;7.13;5.95;;;;;;;25.06;40.11;93383.69;5059795;28;20398;-75
2023/08/02 08:34:39;;;;;;;7.82;5.82;;;;;;;25.05;39.61;93376.69;5059446;28;20607;-77
2023/08/02 08:37:04;;;;;;;12.50;7.95;;;;;;;24.97;39.93;93369.84;5061773;28;20405;-76
2023/08/02 08:39:30;;;;;;;7.18;6.22;;;;;;;24.97;40.22;93381.50;5056992;28;20688;-77
2023/08/02 08:41:58;;;;;;;7.85;6.72;;;;;;;25.00;40.70;93369.00;5061656;28;20102;-77
2023/08/02 08:44:24;;;;;;;7.70;6.30;;;;;;;24.97;40.31;93361.69;5058300;28;20041;-75
2023/08/02 08:46:49;;;;;;;13.48;8.00;;;;;;;25.03;40.94;93381.81;5059916;28;20117;-77
2023/08/02 08:49:15;;;;;;;13.18;6.97;;;;;;;25.25;40.49;93381.00;5061265;28;20024;-75
2023/08/02 08:51:45;;;;;;;9.45;6.50;;;;;;;25.19;40.04;93377.22;5060651;28;20044;-74
2023/08/02 08:54:23;;;;;;;10.77;6.63;;;;;;;25.23;40.11;93368.97;5061603;28;20525;-75
2023/08/02 08:56:49;;;;;;;10.10;6.70;;;;;;;25.20;39.61;93369.81;5058685;28;20181;-74
2023/08/02 08:59:15;;;;;;;12.38;5.82;;;;;;;25.19;38.32;93360.13;5059453;28;20037;-77
2023/08/02 09:01:42;;;;;;;7.90;5.80;;;;;;;25.31;37.72;93373.16;5060900;28;20039;-76
2023/08/02 09:04:07;;;;;;;11.10;5.55;;;;;;;25.34;38.17;93377.75;5058176;28;20486;-75
2023/08/02 09:06:34;;;;;;;6.43;5.25;;;;;;;25.36;38.19;93372.69;5061121;28;20254;-76
2023/08/02 09:09:00;;;;;;;6.28;5.32;;;;;;;25.30;37.73;93355.25;5059089;28;20817;-75
2023/08/02 09:11:25;;;;;;;6.55;5.25;;;;;;;25.38;37.51;93351.22;5060174;28;20518;-76
2023/08/02 09:14:08;;;;;;;10.27;5.85;;;;;;;25.47;37.09;93369.75;5057923;28;20146;-76
2023/08/02 09:16:35;;;;;;;7.90;4.53;;;;;;;25.49;36.64;93362.69;5061572;28;20458;-74
2023/08/02 09:19:01;;;;;;;8.48;4.97;;;;;;;25.57;37.21;93372.25;5056634;28;20581;-75
2023/08/02 09:21:26;;;;;;;6.40;5.10;;;;;;;25.58;37.26;93362.91;5059111;28;20069;-75
2023/08/02 09:23:56;;;;;;;6.75;4.60;;;;;;;25.61;36.14;93359.34;5059745;28;20034;-74
2023/08/02 09:26:22;;;;;;;9.75;4.60;;;;;;;25.67;35.70;93357.66;5059490;28;20032;-75
2023/08/02 09:29:01;;;;;;;5.85;4.22;;;;;;;25.61;35.64;93359.34;5056379;28;20066;-75
2023/08/02 09:31:28;;;;;;;5.25;3.90;;;;;;;25.73;35.39;93370.78;5063687;28;20313;-75
2023/08/02 09:34:03;;;;;;;10.77;3.83;;;;;;;25.76;35.10;93361.78;5057797;28;20024;-75
2023/08/02 09:36:33;;;;;;;7.10;4.28;;;;;;;25.79;34.78;93353.53;5061960;28;20311;-76
2023/08/02 09:39:10;;;;;;;8.73;4.70;;;;;;;25.70;35.20;93350.63;5057965;28;20514;-74
2023/08/02 09:41:35;;;;;;;5.20;4.40;;;;;;;25.77;36.03;93368.75;5059208;28;20044;-73
2023/08/02 09:44:01;;;;;;;5.38;4.25;;;;;;;25.91;35.74;93354.91;5056628;28;20731;-76
2023/08/02 09:46:29;;;;;;;9.73;4.55;;;;;;;25.92;36.34;93357.19;5056127;28;20051;-75
2023/08/02 09:48:57;;;;;;;9.02;4.72;;;;;;;25.89;34.41;93343.63;5056002;28;20394;-76
2023/08/02 09:51:44;;;;;;;5.85;4.53;;;;;;;25.90;34.89;93354.13;5059946;28;20517;-76
2023/08/02 09:54:11;;;;;;;6.35;3.90;;;;;;;25.97;34.99;93356.69;5059070;28;20036;-74
2023/08/02 09:56:39;;;;;;;5.45;4.75;;;;;;;26.14;35.81;93346.59;5059439;28;20344;-76
2023/08/02 09:59:08;;;;;;;5.18;4.50;;;;;;;26.14;35.18;93354.78;5057966;28;20472;-74
2023/08/02 10:01:35;;;;;;;5.80;4.57;;;;;;;26.19;33.93;93354.28;5068199;28;20100;-76
2023/08/02 10:04:09;;;;;;;6.95;4.20;;;;;;;26.25;34.38;93351.81;5064817;28;20023;-74
2023/08/02 10:06:44;;;;;;;6.00;4.13;;;;;;;26.28;34.87;93346.28;5070009;28;20056;-73
2023/08/02 10:09:14;;;;;;;7.35;4.57;;;;;;;26.20;35.41;93328.56;5064091;28;20036;-73
2023/08/02 10:11:52;;;;;;;7.07;4.35;;;;;;;26.48;34.99;93366.09;5068843;28;20054;-74
2023/08/02 10:14:19;;;;;;;8.95;4.80;;;;;;;26.43;34.57;93363.84;5066660;28;20036;-75
2023/08/02 10:16:46;;;;;;;5.30;4.70;;;;;;;26.44;34.86;93359.94;5081724;27;20047;-74
2023/08/02 10:19:13;;;;;;;5.50;4.97;;;;;;;26.32;35.70;93351.63;5065787;27;20063;-75
2023/08/02 10:21:43;;;;;;;7.93;4.80;;;;;;;26.23;35.20;93349.50;5069549;28;20020;-75
2023/08/02 10:24:10;;;;;;;5.32;4.25;;;;;;;26.09;34.87;93328.78;5065890;28;20039;-73
2023/08/02 10:26:36;;;;;;;7.30;4.65;;;;;;;26.21;34.43;93360.06;5066860;28;20089;-76
2023/08/02 10:29:03;;;;;;;7.03;4.30;;;;;;;26.07;35.10;93335.84;5068694;28;20040;-74
2023/08/02 10:31:29;;;;;;;6.03;4.78;;;;;;;26.17;35.20;93343.03;5068275;28;20040;-75
2023/08/02 10:33:55;;;;;;;8.35;5.32;;;;;;;26.20;34.93;93339.47;5082590;27;20034;-75
2023/08/02 10:36:20;;;;;;;5.72;5.20;;;;;;;26.22;35.76;93337.06;5074722;28;20035;-75
2023/08/02 10:38:57;;;;;;;5.50;4.82;;;;;;;26.42;34.44;93342.44;5065173;28;20927;-75
2023/08/02 10:41:28;;;;;;;6.70;5.13;;;;;;;26.43;35.34;93338.53;5063922;28;20115;-75
2023/08/02 10:43:53;;;;;;;7.60;4.50;;;;;;;26.42;34.09;93335.03;5064587;28;20036;-75
2023/08/02 10:46:24;;;;;;;6.63;4.95;;;;;;;26.52;34.81;93336.78;5073874;28;20050;-75
2023/08/02 10:48:51;;;;;;;5.97;5.05;;;;;;;26.69;34.37;93336.78;5065260;28;20420;-75
2023/08/02 10:51:32;;;;;;;4.45;3.97;;;;;;;26.81;33.29;93334.13;5063656;28;20649;-76
2023/08/02 10:54:21;;;;;;;6.07;4.82;;;;;;;26.88;34.28;93339.41;5071821;28;20046;-75
2023/08/02 10:56:53;;;;;;;4.63;4.22;;;;;;;26.70;34.29;93335.56;5072193;28;20621;-75
2023/08/02 10:59:24;;;;;;;9.68;5.05;;;;;;;26.88;34.99;93338.66;5073935;28;20039;-75
2023/08/02 11:01:54;;;;;;;8.27;4.43;;;;;;;26.92;34.89;93331.91;5072037;28;20036;-75
2023/08/02 11:04:20;;;;;;;6.15;5.25;;;;;;;26.95;34.35;93328.31;5065226;28;20504;-74
2023/08/02 11:06:45;;;;;;;7.15;4.85;;;;;;;27.04;34.55;93335.13;5069420;28;20029;-75
2023/08/02 11:09:10;;;;;;;8.57;4.85;;;;;;;27.01;34.68;93323.09;5064194;28;20055;-75
2023/08/02 11:11:36;;;;;;;14.90;5.00;;;;;;;27.10;34.76;93323.28;5068452;28;20056;-74
2023/08/02 11:14:02;;;;;;;8.32;4.57;;;;;;;27.18;33.92;93319.16;5061791;28;20539;-74
2023/08/02 11:16:28;;;;;;;6.82;4.60;;;;;;;27.04;33.82;93321.50;5066440;28;20052;-74
2023/08/02 11:18:53;;;;;;;5.55;4.57;;;;;;;27.05;34.01;93321.06;5065061;28;20028;-74
2023/08/02 11:21:19;;;;;;;4.70;4.20;;;;;;;27.08;33.89;93325.69;5067334;28;20204;-75
2023/08/02 11:23:49;;;;;;;14.38;5.38;;;;;;;27.17;33.57;93325.06;5072529;28;20123;-75
2023/08/02 11:26:17;;;;;;;7.90;4.35;;;;;;;27.23;34.00;93329.56;5065782;28;20509;-74